Fulda, Minnesota
Current Conditions -  °F | °C
As of 2:16 PM on Monday 24 Nov 2014 (Local Time) from KDVP Reporting Station
Overcast Overcast  
Wind Chill: -1°   Ceiling: 1800
Heat Index: 18°   Visibility: 10mi
Dew Point: 12°   Wind: 29mph
Humidity: 78%   Direction: 310°NW
Pressure: 29.68"   Gusts: 36mph
Location:  43.87°N, 95.6°W
Report Text: KDVP 242016Z AUTO 31025G31KT 10SM OVC018 M08/M11 A2968 RMK AO2 T10791111
Loading
Personal Weather Stations






























Interactive Weather Map New forecast layout! Learn more

10-Day Weather Forecast

Advertisements
Track Severe Weather on mobile